createdAt,value
2016-05-28T00:00:08.563Z,86.31
2016-05-28T00:00:18.548Z,86.41
2016-05-28T00:00:28.579Z,86.02
2016-05-28T00:00:38.563Z,86.02
2016-05-28T00:00:48.598Z,86.02
2016-05-28T00:00:58.582Z,86.02
2016-05-28T00:01:08.582Z,86.41
2016-05-28T00:01:18.582Z,86.02
2016-05-28T00:01:28.441Z,86.12
2016-05-28T00:01:38.598Z,86.31
2016-05-28T00:01:48.616Z,86.31
2016-05-28T00:01:58.601Z,86.31
2016-05-28T00:02:08.616Z,86.12
2016-05-28T00:02:18.616Z,86.31
2016-05-28T00:02:28.632Z,86.31
2016-05-28T00:02:38.476Z,86.21
2016-05-28T00:02:48.635Z,86.21
2016-05-28T00:02:58.635Z,86.31
2016-05-28T00:03:08.494Z,86.21
2016-05-28T00:03:18.666Z,86.5
2016-05-28T00:03:28.510Z,86.5
2016-05-28T00:03:38.666Z,86.21
2016-05-28T00:03:48.512Z,86.31
2016-05-28T00:03:58.668Z,86.41
2016-05-28T00:04:08.684Z,86.31
2016-05-28T00:04:18.684Z,86.21
2016-05-28T00:04:28.543Z,86.31
2016-05-28T00:04:38.543Z,86.5
2016-05-28T00:04:48.562Z,86.5
2016-05-28T00:04:58.999Z,86.5
2016-05-28T00:05:08.952Z,86.21
2016-05-28T00:05:18.671Z,86.31
2016-05-28T00:05:28.577Z,86.31
2016-05-28T00:05:38.718Z,86.31
2016-05-28T00:05:48.737Z,86.31
2016-05-28T00:05:58.737Z,86.41
2016-05-28T00:06:08.737Z,86.88
2016-05-28T00:06:18.752Z,86.31
2016-05-28T00:06:28.752Z,86.5
2016-05-28T00:06:38.752Z,87.17
2016-05-28T00:06:48.754Z,86.31
2016-05-28T00:06:58.770Z,86.41
2016-05-28T00:07:08.770Z,86.41
2016-05-28T00:07:18.785Z,86.6
2016-05-28T00:07:28.785Z,86.5
2016-05-28T00:07:38.785Z,86.98
2016-05-28T00:07:48.789Z,86.88
2016-05-28T00:07:58.805Z,86.98
2016-05-28T00:08:08.805Z,87.17
2016-05-28T00:08:18.805Z,86.98
2016-05-28T00:08:28.821Z,86.98
2016-05-28T00:08:38.821Z,86.98
2016-05-28T00:08:48.823Z,87.08
2016-05-28T00:08:58.838Z,87.17
2016-05-28T00:09:08.838Z,87.17
2016-05-28T00:09:18.682Z,86.79
2016-05-28T00:09:28.838Z,86.79
2016-05-28T00:09:38.854Z,86.88
2016-05-28T00:09:48.856Z,86.88
2016-05-28T00:09:58.856Z,86.79
2016-05-28T00:10:08.872Z,87.08
2016-05-28T00:10:18.872Z,86.98
2016-05-28T00:10:28.872Z,86.98
2016-05-28T00:10:38.887Z,86.88
2016-05-28T00:10:48.891Z,86.79
2016-05-28T00:10:58.891Z,86.98
2016-05-28T00:11:08.907Z,86.98
2016-05-28T00:11:18.907Z,86.98
2016-05-28T00:11:28.751Z,86.98
2016-05-28T00:11:38.922Z,86.98
2016-05-28T00:11:48.924Z,86.88
2016-05-28T00:11:58.924Z,86.79
2016-05-28T00:12:08.924Z,86.88
2016-05-28T00:12:18.940Z,86.88
2016-05-28T00:12:28.940Z,86.98
2016-05-28T00:12:38.940Z,87.08
2016-05-28T00:12:48.943Z,86.88
2016-05-28T00:12:58.959Z,86.69
2016-05-28T00:13:08.959Z,86.65
2016-05-28T00:13:18.959Z,86.79
2016-05-28T00:13:28.974Z,86.69
2016-05-28T00:13:38.974Z,87.08
2016-05-28T00:13:48.993Z,86.94
2016-05-28T00:13:58.977Z,86.79
2016-05-28T00:14:08.993Z,86.88
2016-05-28T00:14:18.993Z,86.94
2016-05-28T00:14:28.993Z,86.98
2016-05-28T00:14:39.009Z,87.08
2016-05-28T00:14:49.011Z,86.98
2016-05-28T00:14:59.011Z,86.98
2016-05-28T00:15:09.026Z,86.98
2016-05-28T00:15:19.026Z,86.98
2016-05-28T00:15:29.042Z,86.98
2016-05-28T00:15:39.026Z,86.98
2016-05-28T00:15:49.045Z,86.79
2016-05-28T00:15:59.045Z,86.98
2016-05-28T00:16:09.045Z,86.79
2016-05-28T00:16:19.060Z,86.98
2016-05-28T00:16:29.060Z,86.79
2016-05-28T00:16:39.060Z,86.94
2016-05-28T00:16:48.922Z,87.08
2016-05-28T00:16:59.078Z,86.79
2016-05-28T00:17:09.094Z,86.79
2016-05-28T00:17:19.078Z,86.98
2016-05-28T00:17:29.094Z,86.88
2016-05-28T00:17:39.094Z,86.74
2016-05-28T00:17:49.112Z,86.98
2016-05-28T00:17:59.112Z,86.74
2016-05-28T00:18:09.112Z,87.08
2016-05-28T00:18:19.112Z,86.79
2016-05-28T00:18:29.112Z,87.08
2016-05-28T00:18:39.128Z,86.98
2016-05-28T00:18:49.131Z,86.79
2016-05-28T00:18:59.147Z,86.74
2016-05-28T00:19:09.147Z,86.94
2016-05-28T00:19:19.147Z,86.94
2016-05-28T00:19:29.162Z,86.98
2016-05-28T00:19:39.162Z,86.98
2016-05-28T00:19:49.165Z,86.79
2016-05-28T00:19:59.821Z,86.74
2016-05-28T00:20:09.978Z,87.08
2016-05-28T00:20:19.212Z,87.08
2016-05-28T00:20:29.071Z,87.27
2016-05-28T00:20:39.040Z,87.03
2016-05-28T00:20:49.198Z,86.98
2016-05-28T00:20:59.198Z,87.03
2016-05-28T00:21:09.214Z,86.88
2016-05-28T00:21:19.214Z,87.17
2016-05-28T00:21:29.214Z,87.13
2016-05-28T00:21:39.073Z,86.79
2016-05-28T00:21:49.233Z,87.03
2016-05-28T00:21:59.233Z,87.03
2016-05-28T00:22:09.092Z,87.03
2016-05-28T00:22:19.233Z,86.74
2016-05-28T00:22:29.248Z,86.84
2016-05-28T00:22:39.248Z,86.94
2016-05-28T00:22:49.267Z,87.03
2016-05-28T00:22:59.267Z,87.27
2016-05-28T00:23:09.267Z,86.94
2016-05-28T00:23:19.267Z,87.03
2016-05-28T00:23:29.283Z,87.23
2016-05-28T00:23:39.283Z,87.03
2016-05-28T00:23:49.286Z,87.32
2016-05-28T00:23:59.301Z,87.03
2016-05-28T00:24:09.301Z,86.88
2016-05-28T00:24:19.301Z,86.94
2016-05-28T00:24:29.332Z,86.94
2016-05-28T00:24:39.317Z,86.84
2016-05-28T00:24:49.163Z,86.94
2016-05-28T00:24:59.163Z,87.03
2016-05-28T00:25:09.334Z,86.94
2016-05-28T00:25:19.350Z,86.94
2016-05-28T00:25:29.178Z,86.74
2016-05-28T00:25:39.350Z,86.84
2016-05-28T00:25:49.352Z,86.84
2016-05-28T00:25:59.352Z,86.84
2016-05-28T00:26:09.368Z,86.74
2016-05-28T00:26:19.368Z,86.74
2016-05-28T00:26:29.368Z,86.74
2016-05-28T00:26:39.383Z,86.94
2016-05-28T00:26:49.387Z,86.84
2016-05-28T00:26:59.387Z,86.94
2016-05-28T00:27:09.387Z,86.94
2016-05-28T00:27:19.403Z,87.03
2016-05-28T00:27:29.403Z,87.32
2016-05-28T00:27:39.403Z,87.13
2016-05-28T00:27:49.421Z,87.32
2016-05-28T00:27:59.421Z,87.13
2016-05-28T00:28:09.421Z,86.84
2016-05-28T00:28:19.421Z,86.74
2016-05-28T00:28:29.436Z,87.32
2016-05-28T00:28:39.436Z,87.41
2016-05-28T00:28:49.439Z,87.32
2016-05-28T00:28:59.455Z,87.41
2016-05-28T00:29:09.455Z,87.41
2016-05-28T00:29:19.455Z,87.51
2016-05-28T00:29:29.455Z,87.41
2016-05-28T00:29:39.470Z,87.51
2016-05-28T00:29:49.473Z,87.32
2016-05-28T00:29:59.473Z,87.41
2016-05-28T00:30:09.333Z,87.32
2016-05-28T00:30:19.489Z,87.32
2016-05-28T00:30:29.489Z,87.41
2016-05-28T00:30:39.489Z,87.41
2016-05-28T00:30:49.507Z,87.41
2016-05-28T00:30:59.507Z,87.41
2016-05-28T00:31:09.366Z,87.41
2016-05-28T00:31:19.522Z,87.32
2016-05-28T00:31:29.538Z,87.41
2016-05-28T00:31:39.538Z,87.41
2016-05-28T00:31:49.557Z,87.32
2016-05-28T00:31:59.541Z,87.32
2016-05-28T00:32:09.541Z,87.41
2016-05-28T00:32:19.400Z,87.32
2016-05-28T00:32:29.557Z,87.32
2016-05-28T00:32:39.557Z,87.41
2016-05-28T00:32:49.575Z,87.23
2016-05-28T00:32:59.575Z,87.41
2016-05-28T00:33:09.606Z,87.23
2016-05-28T00:33:19.575Z,87.23
2016-05-28T00:33:29.591Z,87.41
2016-05-28T00:33:39.591Z,87.23
2016-05-28T00:33:49.608Z,87.23
2016-05-28T00:33:59.608Z,87.41
2016-05-28T00:34:09.608Z,87.32
2016-05-28T00:34:19.608Z,87.23
2016-05-28T00:34:29.624Z,87.41
2016-05-28T00:34:39.640Z,87.41
2016-05-28T00:34:49.627Z,87.23
2016-05-28T00:34:59.877Z,87.23
2016-05-28T00:35:09.690Z,87.13
2016-05-28T00:35:20.033Z,87.23
2016-05-28T00:35:29.658Z,87.23
2016-05-28T00:35:39.658Z,87.32
2016-05-28T00:35:49.661Z,87.23
2016-05-28T00:35:59.677Z,87.41
2016-05-28T00:36:09.661Z,87.23
2016-05-28T00:36:19.677Z,87.23
2016-05-28T00:36:29.521Z,87.32
2016-05-28T00:36:39.693Z,87.23
2016-05-28T00:36:49.696Z,87.23
2016-05-28T00:36:59.696Z,87.41
2016-05-28T00:37:09.711Z,87.23
2016-05-28T00:37:19.711Z,87.41
2016-05-28T00:37:29.696Z,87.13
2016-05-28T00:37:39.711Z,87.13
2016-05-28T00:37:49.713Z,87.23
2016-05-28T00:37:59.729Z,87.03
2016-05-28T00:38:09.729Z,87.23
2016-05-28T00:38:19.729Z,87.51
2016-05-28T00:38:29.760Z,87.7
2016-05-28T00:38:39.588Z,87.51
2016-05-28T00:38:49.763Z,87.61
2016-05-28T00:38:59.763Z,87.41
2016-05-28T00:39:09.779Z,87.23
2016-05-28T00:39:19.779Z,87.8
2016-05-28T00:39:29.763Z,87.41
2016-05-28T00:39:39.779Z,87.8
2016-05-28T00:39:49.781Z,87.8
2016-05-28T00:39:59.781Z,87.8
2016-05-28T00:40:09.796Z,87.61
2016-05-28T00:40:19.796Z,87.61
2016-05-28T00:40:29.812Z,87.61
2016-05-28T00:40:39.812Z,87.61
2016-05-28T00:40:49.815Z,87.61
2016-05-28T00:40:59.815Z,87.61
2016-05-28T00:41:09.815Z,87.7
2016-05-28T00:41:19.831Z,87.61
2016-05-28T00:41:29.831Z,87.7
2016-05-28T00:41:39.831Z,87.61
2016-05-28T00:41:49.849Z,87.61
2016-05-28T00:41:59.849Z,87.7
2016-05-28T00:42:09.849Z,87.7
2016-05-28T00:42:19.865Z,87.7
2016-05-28T00:42:29.865Z,87.61
2016-05-28T00:42:39.865Z,87.7
2016-05-28T00:42:49.868Z,87.7
2016-05-28T00:42:59.883Z,87.61
2016-05-28T00:43:09.883Z,87.61
2016-05-28T00:43:19.883Z,87.51
2016-05-28T00:43:29.883Z,87.7
2016-05-28T00:43:39.899Z,87.51
2016-05-28T00:43:49.901Z,87.51
2016-05-28T00:43:59.917Z,87.7
2016-05-28T00:44:09.917Z,87.7
2016-05-28T00:44:19.917Z,87.7
2016-05-28T00:44:29.932Z,87.7
2016-05-28T00:44:39.932Z,87.7
2016-05-28T00:44:49.935Z,87.7
2016-05-28T00:44:59.951Z,87.51
2016-05-28T00:45:09.951Z,87.8
2016-05-28T00:45:19.951Z,87.51
2016-05-28T00:45:29.951Z,87.23
2016-05-28T00:45:39.810Z,87.23
2016-05-28T00:45:49.970Z,87.61
2016-05-28T00:45:59.970Z,87.51
2016-05-28T00:46:09.813Z,87.47
2016-05-28T00:46:19.985Z,87.47
2016-05-28T00:46:29.985Z,87.56
2016-05-28T00:46:39.985Z,87.51
2016-05-28T00:46:49.988Z,87.51
2016-05-28T00:47:00.004Z,87.61
2016-05-28T00:47:10.004Z,87.18
2016-05-28T00:47:20.004Z,87.27
2016-05-28T00:47:30.019Z,87.08
2016-05-28T00:47:39.863Z,87.18
2016-05-28T00:47:50.021Z,87.18
2016-05-28T00:48:00.037Z,87.32
2016-05-28T00:48:10.037Z,87.41
2016-05-28T00:48:20.037Z,87.32
2016-05-28T00:48:30.053Z,87.51
2016-05-28T00:48:40.053Z,87.51
2016-05-28T00:48:50.056Z,87.23
2016-05-28T00:49:00.071Z,87.41
2016-05-28T00:49:10.071Z,87.32
2016-05-28T00:49:20.071Z,87.27
2016-05-28T00:49:30.087Z,87.18
2016-05-28T00:49:40.087Z,87.51
2016-05-28T00:49:50.261Z,87.23
2016-05-28T00:50:01.870Z,87.51
2016-05-28T00:50:10.105Z,87.41
2016-05-28T00:50:20.120Z,87.27
2016-05-28T00:50:30.370Z,87.41
2016-05-28T00:50:40.120Z,87.27
2016-05-28T00:50:50.123Z,87.41
2016-05-28T00:51:00.139Z,87.51
2016-05-28T00:51:10.123Z,87.51
2016-05-28T00:51:20.139Z,87.51
2016-05-28T00:51:30.139Z,87.32
2016-05-28T00:51:40.139Z,87.27
2016-05-28T00:51:50.157Z,87.32
2016-05-28T00:52:00.157Z,87.23
2016-05-28T00:52:10.157Z,87.47
2016-05-28T00:52:20.173Z,87.27
2016-05-28T00:52:30.017Z,87.27
2016-05-28T00:52:40.173Z,87.27
2016-05-28T00:52:50.191Z,87.27
2016-05-28T00:53:00.191Z,87.27
2016-05-28T00:53:10.191Z,87.27
2016-05-28T00:53:20.191Z,87.47
2016-05-28T00:53:30.206Z,87.27
2016-05-28T00:53:40.206Z,87.27
2016-05-28T00:53:50.053Z,87.37
2016-05-28T00:54:00.225Z,87.27
2016-05-28T00:54:10.225Z,87.32
2016-05-28T00:54:20.225Z,87.32
2016-05-28T00:54:30.069Z,87.37
2016-05-28T00:54:40.084Z,87.37
2016-05-28T00:54:50.244Z,87.37
2016-05-28T00:55:00.244Z,87.37
2016-05-28T00:55:10.259Z,87.37
2016-05-28T00:55:20.259Z,87.47
2016-05-28T00:55:30.259Z,87.37
2016-05-28T00:55:40.259Z,87.47
2016-05-28T00:55:50.277Z,87.47
2016-05-28T00:56:00.277Z,87.56
2016-05-28T00:56:10.292Z,87.56
2016-05-28T00:56:20.292Z,87.56
2016-05-28T00:56:30.136Z,87.47
2016-05-28T00:56:40.292Z,87.37
2016-05-28T00:56:50.296Z,87.47
2016-05-28T00:57:00.312Z,87.47
2016-05-28T00:57:10.312Z,87.37
2016-05-28T00:57:20.328Z,87.37
2016-05-28T00:57:30.328Z,87.56
2016-05-28T00:57:40.328Z,87.37
2016-05-28T00:57:50.330Z,87.37
2016-05-28T00:58:00.330Z,87.47
2016-05-28T00:58:10.345Z,87.37
2016-05-28T00:58:20.345Z,87.47
2016-05-28T00:58:30.361Z,87.56
2016-05-28T00:58:40.361Z,87.56
2016-05-28T00:58:50.363Z,87.37
2016-05-28T00:59:00.363Z,87.56
2016-05-28T00:59:10.379Z,87.56
2016-05-28T00:59:20.379Z,87.56
2016-05-28T00:59:30.379Z,87.56
2016-05-28T00:59:40.394Z,87.56
2016-05-28T00:59:50.398Z,87.37
2016-05-28T01:00:00.398Z,87.66
2016-05-28T01:00:10.398Z,87.37
2016-05-28T01:00:20.414Z,87.56
2016-05-28T01:00:30.258Z,87.66
2016-05-28T01:00:40.414Z,87.37
2016-05-28T01:00:50.416Z,87.37
2016-05-28T01:01:00.431Z,87.66
2016-05-28T01:01:10.431Z,87.37
2016-05-28T01:01:20.447Z,87.37
2016-05-28T01:01:30.463Z,87.56
2016-05-28T01:01:40.463Z,87.56
2016-05-28T01:01:50.465Z,87.27
2016-05-28T01:02:00.480Z,87.37
2016-05-28T01:02:10.465Z,87.37
2016-05-28T01:02:20.480Z,87.27
2016-05-28T01:02:30.480Z,87.37
2016-05-28T01:02:40.480Z,87.85
2016-05-28T01:02:50.483Z,87.37
2016-05-28T01:03:00.483Z,87.37
2016-05-28T01:03:10.343Z,87.66
2016-05-28T01:03:20.530Z,87.66
2016-05-28T01:03:30.358Z,88.04
2016-05-28T01:03:40.515Z,87.95
2016-05-28T01:03:50.518Z,87.56
2016-05-28T01:04:00.518Z,87.95
2016-05-28T01:04:10.533Z,87.47
2016-05-28T01:04:20.518Z,88.04
2016-05-28T01:04:30.393Z,88.13
2016-05-28T01:04:40.580Z,88.13
2016-05-28T01:04:50.567Z,88.13
2016-05-28T01:05:01.067Z,87.76
2016-05-28T01:05:10.552Z,88.13
2016-05-28T01:05:20.427Z,87.95
2016-05-28T01:05:30.411Z,88.04
2016-05-28T01:05:40.567Z,88.04
2016-05-28T01:05:50.585Z,88.04
2016-05-28T01:06:00.585Z,88.04
2016-05-28T01:06:10.585Z,88.13
2016-05-28T01:06:20.601Z,87.76
2016-05-28T01:06:30.444Z,88.04
2016-05-28T01:06:40.601Z,88.13
2016-05-28T01:06:50.604Z,88.04
2016-05-28T01:07:00.619Z,88.13
2016-05-28T01:07:10.635Z,88.23
2016-05-28T01:07:20.619Z,88.23
2016-05-28T01:07:30.479Z,88.13
2016-05-28T01:07:40.510Z,88.04
2016-05-28T01:07:50.638Z,88.33
2016-05-28T01:08:00.497Z,88.23
2016-05-28T01:08:10.654Z,88.33
2016-05-28T01:08:20.654Z,88.04
2016-05-28T01:08:30.700Z,88.33
2016-05-28T01:08:40.669Z,88.43
2016-05-28T01:08:50.813Z,87.85
2016-05-28T01:09:00.688Z,87.85
2016-05-28T01:09:10.532Z,87.85
2016-05-28T01:09:20.703Z,87.85
2016-05-28T01:09:30.594Z,87.85
2016-05-28T01:09:40.766Z,87.95
2016-05-28T01:09:50.550Z,87.95
2016-05-28T01:10:00.738Z,87.95
2016-05-28T01:10:10.769Z,87.95
2016-05-28T01:10:20.566Z,88.13
2016-05-28T01:10:30.769Z,87.95
2016-05-28T01:10:40.785Z,87.95
2016-05-28T01:10:50.582Z,87.95
2016-05-28T01:11:00.582Z,87.95
2016-05-28T01:11:10.582Z,88.23
2016-05-28T01:11:20.739Z,87.95
2016-05-28T01:11:30.754Z,87.95
2016-05-28T01:11:40.817Z,88.04
2016-05-28T01:11:50.757Z,87.85
2016-05-28T01:12:00.773Z,88.04
2016-05-28T01:12:10.835Z,87.95
2016-05-28T01:12:20.773Z,88.43
2016-05-28T01:12:30.789Z,88.33
2016-05-28T01:12:40.851Z,88.04
2016-05-28T01:12:50.698Z,88.33
2016-05-28T01:13:00.792Z,88.33
2016-05-28T01:13:10.870Z,88.04
2016-05-28T01:13:20.807Z,88.33
2016-05-28T01:13:30.807Z,88.04
2016-05-28T01:13:40.823Z,88.33
2016-05-28T01:13:50.779Z,88.23
2016-05-28T01:14:00.685Z,88.23
2016-05-28T01:14:10.888Z,88.23
2016-05-28T01:14:20.841Z,88.04
2016-05-28T01:14:30.857Z,88.33
2016-05-28T01:14:40.763Z,88.04
2016-05-28T01:14:50.859Z,88.13
2016-05-28T01:15:00.859Z,88.04
2016-05-28T01:15:10.906Z,88.04
2016-05-28T01:15:20.937Z,88.04
2016-05-28T01:15:30.875Z,88.04
2016-05-28T01:15:40.875Z,88.04
2016-05-28T01:15:50.894Z,87.95
2016-05-28T01:16:00.894Z,88.13
2016-05-28T01:16:10.957Z,88.04
2016-05-28T01:16:20.957Z,88.04
2016-05-28T01:16:30.910Z,87.95
2016-05-28T01:16:40.910Z,87.95
2016-05-28T01:16:50.912Z,87.95
2016-05-28T01:17:00.928Z,87.85
2016-05-28T01:17:10.928Z,88.04
2016-05-28T01:17:20.928Z,87.85
2016-05-28T01:17:30.928Z,87.95
2016-05-28T01:17:40.943Z,87.95
2016-05-28T01:17:50.962Z,87.95
2016-05-28T01:18:00.962Z,87.95
2016-05-28T01:18:10.962Z,87.85
2016-05-28T01:18:20.977Z,87.85
2016-05-28T01:18:30.962Z,87.95
2016-05-28T01:18:40.962Z,88.04
2016-05-28T01:18:51.026Z,87.85
2016-05-28T01:19:00.979Z,87.85
2016-05-28T01:19:10.979Z,87.95
2016-05-28T01:19:20.979Z,87.76
2016-05-28T01:19:30.995Z,88.04
2016-05-28T01:19:41.386Z,87.85
2016-05-28T01:19:50.857Z,87.95
2016-05-28T01:20:01.779Z,87.76
2016-05-28T01:20:11.248Z,87.95
2016-05-28T01:20:21.795Z,87.85
2016-05-28T01:20:31.029Z,87.95
2016-05-28T01:20:41.029Z,87.85
2016-05-28T01:20:51.048Z,87.76
2016-05-28T01:21:01.048Z,87.95
2016-05-28T01:21:11.048Z,87.95
2016-05-28T01:21:21.048Z,88.04
2016-05-28T01:21:31.048Z,87.85
2016-05-28T01:21:41.064Z,87.85
2016-05-28T01:21:51.081Z,88.04
2016-05-28T01:22:01.081Z,87.95
2016-05-28T01:22:11.081Z,87.85
2016-05-28T01:22:21.081Z,87.76
2016-05-28T01:22:31.081Z,87.95
2016-05-28T01:22:41.097Z,87.95
2016-05-28T01:22:51.100Z,87.76
2016-05-28T01:23:01.131Z,87.85
2016-05-28T01:23:11.115Z,87.95
2016-05-28T01:23:20.959Z,87.85
2016-05-28T01:23:31.115Z,87.85
2016-05-28T01:23:41.147Z,87.95
2016-05-28T01:23:51.150Z,87.85
2016-05-28T01:24:01.150Z,87.95
2016-05-28T01:24:10.978Z,87.95
2016-05-28T01:24:21.134Z,87.95
2016-05-28T01:24:31.150Z,87.85
2016-05-28T01:24:41.150Z,87.95
2016-05-28T01:24:51.167Z,87.95
2016-05-28T01:25:01.167Z,88.04
2016-05-28T01:25:11.167Z,87.76
2016-05-28T01:25:21.183Z,87.95
2016-05-28T01:25:31.183Z,88.04
2016-05-28T01:25:41.183Z,87.95
2016-05-28T01:25:51.186Z,88.04
2016-05-28T01:26:01.202Z,88.23
2016-05-28T01:26:11.202Z,87.76
2016-05-28T01:26:21.202Z,87.85
2016-05-28T01:26:31.202Z,87.95
2016-05-28T01:26:41.217Z,87.95
2016-05-28T01:26:51.219Z,87.85
2016-05-28T01:27:01.079Z,87.95
2016-05-28T01:27:11.235Z,88.23
2016-05-28T01:27:21.235Z,87.85
2016-05-28T01:27:31.235Z,87.95
2016-05-28T01:27:41.250Z,88.23
2016-05-28T01:27:51.254Z,87.95
2016-05-28T01:28:01.114Z,88.04
2016-05-28T01:28:11.254Z,88.04
2016-05-28T01:28:21.270Z,88.04
2016-05-28T01:28:31.270Z,88.33
2016-05-28T01:28:41.114Z,88.33
2016-05-28T01:28:51.289Z,88.33
2016-05-28T01:29:01.289Z,88.13
2016-05-28T01:29:11.289Z,88.23
2016-05-28T01:29:21.304Z,88.23
2016-05-28T01:29:31.304Z,88.13
2016-05-28T01:29:41.336Z,87.95
2016-05-28T01:29:51.150Z,88.13
2016-05-28T01:30:01.322Z,88.13
2016-05-28T01:30:11.322Z,88.13
2016-05-28T01:30:21.166Z,87.85
2016-05-28T01:30:31.322Z,88.13
2016-05-28T01:30:41.181Z,87.85
2016-05-28T01:30:51.341Z,87.95
2016-05-28T01:31:01.356Z,88.04
2016-05-28T01:31:11.356Z,87.85
2016-05-28T01:31:21.356Z,88.13
2016-05-28T01:31:31.372Z,87.85
2016-05-28T01:31:41.372Z,88.04
2016-05-28T01:31:51.374Z,88.04
2016-05-28T01:32:01.374Z,88.23
2016-05-28T01:32:11.374Z,88.13
2016-05-28T01:32:21.233Z,87.85
2016-05-28T01:32:31.389Z,88.13
2016-05-28T01:32:41.389Z,87.85
2016-05-28T01:32:51.408Z,88.23
2016-05-28T01:33:01.408Z,88.13
2016-05-28T01:33:11.408Z,87.95
2016-05-28T01:33:21.408Z,87.85
2016-05-28T01:33:31.424Z,88.04
2016-05-28T01:33:41.439Z,88.13
2016-05-28T01:33:51.442Z,88.23
2016-05-28T01:34:01.442Z,87.95
2016-05-28T01:34:11.442Z,87.95
2016-05-28T01:34:21.302Z,88.13
2016-05-28T01:34:31.880Z,87.95
2016-05-28T01:34:41.317Z,88.23
2016-05-28T01:34:51.460Z,87.95
2016-05-28T01:35:01.476Z,87.85
2016-05-28T01:35:11.741Z,88.23
2016-05-28T01:35:21.476Z,88.23
2016-05-28T01:35:31.335Z,88.13
2016-05-28T01:35:41.491Z,88.23
2016-05-28T01:35:51.494Z,88.23
2016-05-28T01:36:01.494Z,88.13
2016-05-28T01:36:11.510Z,87.85
2016-05-28T01:36:21.510Z,87.95
2016-05-28T01:36:31.510Z,88.23
2016-05-28T01:36:41.525Z,88.23
2016-05-28T01:36:51.528Z,87.95
2016-05-28T01:37:01.528Z,88.13
2016-05-28T01:37:11.528Z,88.23
2016-05-28T01:37:21.560Z,88.04
2016-05-28T01:37:31.544Z,88.23
2016-05-28T01:37:41.544Z,88.13
2016-05-28T01:37:51.562Z,88.23
2016-05-28T01:38:01.562Z,88.13
2016-05-28T01:38:11.562Z,88.04
2016-05-28T01:38:21.577Z,88.04
2016-05-28T01:38:31.577Z,88.13
2016-05-28T01:38:41.577Z,88.23
2016-05-28T01:38:51.596Z,88.13
2016-05-28T01:39:01.596Z,88.23
2016-05-28T01:39:11.596Z,88.04
2016-05-28T01:39:21.612Z,88.13
2016-05-28T01:39:31.596Z,88.04
2016-05-28T01:39:41.612Z,88.23
2016-05-28T01:39:51.614Z,87.85
2016-05-28T01:40:01.614Z,87.95
2016-05-28T01:40:11.629Z,88.23
2016-05-28T01:40:21.629Z,88.23
2016-05-28T01:40:31.629Z,88.13
2016-05-28T01:40:41.645Z,88.13
2016-05-28T01:40:51.649Z,87.95
2016-05-28T01:41:01.649Z,88.13
2016-05-28T01:41:11.664Z,88.13
2016-05-28T01:41:21.664Z,88.33
2016-05-28T01:41:31.664Z,88.23
2016-05-28T01:41:41.680Z,88.04
2016-05-28T01:41:51.526Z,87.95
2016-05-28T01:42:01.682Z,88.33
2016-05-28T01:42:11.682Z,87.95
2016-05-28T01:42:21.698Z,88.04
2016-05-28T01:42:31.541Z,88.04
2016-05-28T01:42:41.713Z,88.04
2016-05-28T01:42:51.716Z,87.85
2016-05-28T01:43:01.732Z,87.85
2016-05-28T01:43:11.716Z,87.85
2016-05-28T01:43:21.732Z,87.95
2016-05-28T01:43:31.732Z,87.85
2016-05-28T01:43:41.732Z,87.95
2016-05-28T01:43:51.751Z,88.04
2016-05-28T01:44:01.751Z,87.85
2016-05-28T01:44:11.751Z,87.95
2016-05-28T01:44:21.751Z,87.95
2016-05-28T01:44:31.766Z,87.95
2016-05-28T01:44:41.766Z,87.95
2016-05-28T01:44:51.768Z,88.23
2016-05-28T01:45:01.784Z,87.85
2016-05-28T01:45:11.784Z,88.13
2016-05-28T01:45:21.784Z,87.95
2016-05-28T01:45:31.799Z,88.13
2016-05-28T01:45:41.643Z,87.95
2016-05-28T01:45:51.802Z,87.85
2016-05-28T01:46:01.802Z,87.95
2016-05-28T01:46:11.818Z,87.95
2016-05-28T01:46:21.818Z,87.95
2016-05-28T01:46:31.818Z,87.95
2016-05-28T01:46:41.818Z,87.85
2016-05-28T01:46:51.837Z,87.95
2016-05-28T01:47:01.837Z,87.95
2016-05-28T01:47:11.852Z,87.95
2016-05-28T01:47:21.837Z,87.76
2016-05-28T01:47:31.852Z,87.85
2016-05-28T01:47:41.852Z,87.95
2016-05-28T01:47:51.854Z,87.85
2016-05-28T01:48:01.870Z,87.85
2016-05-28T01:48:11.870Z,87.95
2016-05-28T01:48:21.886Z,88.43
2016-05-28T01:48:31.886Z,87.95
2016-05-28T01:48:41.886Z,88.13
2016-05-28T01:48:51.889Z,88.04
2016-05-28T01:49:01.904Z,87.95
2016-05-28T01:49:11.904Z,88.04
2016-05-28T01:49:21.904Z,88.13
2016-05-28T01:49:31.920Z,88.04
2016-05-28T01:49:41.982Z,88.33
2016-05-28T01:49:51.767Z,88.33
2016-05-28T01:50:01.923Z,88.04
2016-05-28T01:50:11.767Z,88.04
2016-05-28T01:50:22.063Z,88.33
2016-05-28T01:50:31.954Z,88.33
2016-05-28T01:50:41.938Z,88.23
2016-05-28T01:50:51.972Z,88.04
2016-05-28T01:51:01.956Z,88.33
2016-05-28T01:51:11.956Z,88.23
2016-05-28T01:51:21.972Z,88.33
2016-05-28T01:51:31.815Z,88.23
2016-05-28T01:51:41.987Z,88.13
2016-05-28T01:51:51.834Z,87.95
2016-05-28T01:52:01.990Z,88.23
2016-05-28T01:52:11.990Z,88.13
2016-05-28T01:52:22.006Z,87.95
2016-05-28T01:52:31.850Z,88.23
2016-05-28T01:52:42.006Z,88.04
2016-05-28T01:52:52.024Z,88.13
2016-05-28T01:53:02.024Z,87.85
2016-05-28T01:53:12.024Z,88.13
2016-05-28T01:53:22.039Z,87.85
2016-05-28T01:53:31.883Z,87.85
2016-05-28T01:53:42.039Z,87.85
2016-05-28T01:53:52.042Z,87.95
2016-05-28T01:54:02.058Z,87.76
2016-05-28T01:54:11.902Z,88.13
2016-05-28T01:54:22.058Z,88.13
2016-05-28T01:54:32.058Z,88.04
2016-05-28T01:54:42.073Z,88.13
2016-05-28T01:54:52.076Z,88.04
2016-05-28T01:55:02.076Z,88.13
2016-05-28T01:55:12.092Z,88.04
2016-05-28T01:55:22.092Z,87.95
2016-05-28T01:55:32.092Z,88.04
2016-05-28T01:55:42.123Z,88.04
2016-05-28T01:55:52.111Z,88.13
2016-05-28T01:56:02.111Z,88.04
2016-05-28T01:56:12.126Z,87.95
2016-05-28T01:56:22.126Z,88.13
2016-05-28T01:56:32.126Z,88.13
2016-05-28T01:56:42.126Z,88.04
2016-05-28T01:56:52.145Z,87.76
2016-05-28T01:57:01.989Z,88.04
2016-05-28T01:57:12.145Z,88.04
2016-05-28T01:57:22.161Z,88.13
2016-05-28T01:57:32.004Z,88.13
2016-05-28T01:57:42.161Z,88.04
2016-05-28T01:57:52.163Z,87.95
2016-05-28T01:58:02.178Z,87.95
2016-05-28T01:58:12.178Z,88.13
2016-05-28T01:58:22.178Z,87.76
2016-05-28T01:58:32.178Z,87.95
2016-05-28T01:58:42.194Z,87.66
2016-05-28T01:58:52.197Z,88.04
2016-05-28T01:59:02.197Z,88.13
2016-05-28T01:59:12.212Z,87.76
2016-05-28T01:59:22.212Z,88.04
2016-05-28T01:59:32.212Z,87.95
2016-05-28T01:59:42.228Z,87.76
2016-05-28T01:59:52.231Z,88.13
2016-05-28T02:00:02.231Z,88.13
2016-05-28T02:00:12.231Z,88.13
2016-05-28T02:00:22.247Z,88.04
2016-05-28T02:00:32.247Z,88.13
2016-05-28T02:00:42.247Z,88.13
2016-05-28T02:00:52.264Z,88.13
2016-05-28T02:01:02.108Z,87.95
2016-05-28T02:01:12.280Z,87.95
2016-05-28T02:01:22.264Z,88.13
2016-05-28T02:01:32.280Z,88.13
2016-05-28T02:01:42.280Z,88.13
2016-05-28T02:01:52.283Z,88.13
2016-05-28T02:02:02.142Z,87.76
2016-05-28T02:02:12.299Z,88.04
2016-05-28T02:02:22.299Z,88.13
2016-05-28T02:02:32.330Z,87.47
2016-05-28T02:02:42.314Z,88.04
2016-05-28T02:02:52.332Z,87.85
2016-05-28T02:03:02.176Z,87.95
2016-05-28T02:03:12.332Z,88.04
2016-05-28T02:03:22.332Z,88.04
2016-05-28T02:03:32.332Z,87.76
2016-05-28T02:03:42.347Z,87.76
2016-05-28T02:03:52.366Z,88.13
2016-05-28T02:04:02.350Z,88.13
2016-05-28T02:04:12.366Z,88.04
2016-05-28T02:04:22.366Z,87.56
2016-05-28T02:04:32.382Z,88.04
2016-05-28T02:04:42.382Z,88.04
2016-05-28T02:04:52.853Z,87.76
2016-05-28T02:05:02.572Z,87.76
2016-05-28T02:05:12.853Z,87.66
2016-05-28T02:05:22.510Z,87.47
2016-05-28T02:05:32.728Z,87.47
2016-05-28T02:05:42.400Z,87.47
2016-05-28T02:05:52.403Z,87.47
2016-05-28T02:06:02.419Z,87.76
2016-05-28T02:06:12.419Z,87.85
2016-05-28T02:06:22.419Z,87.56
2016-05-28T02:06:32.435Z,87.47
2016-05-28T02:06:42.435Z,87.85
2016-05-28T02:06:52.438Z,87.56
2016-05-28T02:07:02.453Z,88.04
2016-05-28T02:07:12.453Z,87.95
2016-05-28T02:07:22.453Z,87.95
2016-05-28T02:07:32.453Z,87.85
2016-05-28T02:07:42.469Z,87.95
2016-05-28T02:07:52.486Z,87.61
2016-05-28T02:08:02.471Z,87.85
2016-05-28T02:08:12.486Z,87.61
2016-05-28T02:08:22.502Z,87.66
2016-05-28T02:08:32.486Z,87.76
2016-05-28T02:08:42.502Z,87.32
2016-05-28T02:08:52.505Z,87.66
2016-05-28T02:09:02.505Z,87.76